Terminal Aerodrome Forecast
Issued by NWS

Home | Current Version | Previous Version | Text Only | Print | Product List | Glossary Off
Versions: 1 2 3 4 5 6 7 8 9 10 11 12 13 14 15 16 17 18

000
FTUS43 KTOP 242300
TAFFOE
TAF
KFOE 242320Z 2500/2524 28013KT P6SM VCSH BKN100
     FM250800 30014G24KT P6SM VCSH SCT025 BKN050
     FM251500 33022G32KT P6SM VCSH BKN025=

USA.gov is the U.S. government's official web portal to all federal, state and local government web resources and services.